METAR Data
IDs: Format: Raw Decoded Include TAF

Data at: 1749 UTC 21 Sep 2018

KPEZ 211735Z AUTO 18009G15KT 10SM SCT031 SCT038 SCT044 31/22 A2994 RMK AO2 T03130223
KPEZ 211715Z AUTO 18008KT 10SM SCT031 32/23 A2995 RMK AO2 T03170228
KPEZ 211655Z AUTO 16010KT 10SM SCT024 SCT030 SCT037 31/23 A2995 RMK AO2 T03110229
KPEZ 211635Z AUTO 19013G16KT 10SM SCT022 SCT033 SCT038 30/23 A2996 RMK AO2 T03010231
KPEZ 211615Z AUTO 17008KT 10SM SCT020 SCT027 BKN033 29/24 A2996 RMK AO2 T02900236
KPEZ 211555Z AUTO 17010G14KT 10SM SCT020 BKN027 28/24 A2996 RMK AO2 T02830238
KPEZ 211535Z AUTO 17010G15KT 10SM SCT016 BKN023 BKN031 28/24 A2995 RMK AO2 T02800239
KPEZ 211515Z AUTO 18010G14KT 10SM SCT018 BKN025 28/24 A2995 RMK AO2 T02790240
KPEZ 211455Z AUTO 17011G15KT 10SM SCT015 SCT019 SCT028 28/24 A2994 RMK AO2 T02760240
KPEZ 211435Z AUTO 16011G18KT 10SM SCT015 BKN020 BKN028 27/24 A2994 RMK AO2 T02720244
KPEZ 211415Z AUTO 17010G15KT 10SM SCT012 SCT017 BKN023 27/25 A2994 RMK AO2 T02700246
KPEZ 211355Z AUTO 16010KT 10SM BKN012 BKN018 BKN023 27/25 A2994 RMK AO2 T02680249
KPEZ 211335Z AUTO 17009KT 10SM SCT010 BKN014 OVC030 27/25 A2993 RMK AO2 T02650251
KPEZ 211315Z AUTO 16006KT 10SM SCT009 BKN014 OVC028 26/25 A2993 RMK AO2 LTG DSNT NW T02620253
KPEZ 211255Z AUTO 16005KT 10SM BKN011 BKN016 BKN026 26/25 A2992 RMK AO2 T02600253
KPEZ 211235Z AUTO 16006KT 10SM SCT009 BKN012 BKN019 26/26 A2992 RMK AO2 T02570257
KPEZ 211215Z AUTO 15007KT 10SM BKN012 BKN021 26/26 A2991 RMK AO2 T02560256
KPEZ 211155Z AUTO 16005KT 10SM SCT010 BKN015 BKN021 26/26 A2991 RMK AO2 T02560256 10262 20255
KPEZ 211135Z AUTO 16005KT 10SM SCT010 BKN014 26/26 A2991 RMK AO2 T02550255
KPEZ 211115Z AUTO 16006KT 10SM SCT012 26/26 A2990 RMK AO2 T02560256
KPEZ 211055Z AUTO 16007KT 10SM SCT012 26/26 A2990 RMK AO2 T02560255
KPEZ 211035Z AUTO 17006KT 10SM SCT012 BKN017 26/25 A2990 RMK AO2 T02560253
KPEZ 211015Z AUTO 17005KT 10SM BKN013 26/26 A2990 RMK AO2 T02570255
KPEZ 210955Z AUTO 17005KT 10SM BKN014 BKN018 26/26 A2990 RMK AO2 T02580255
KPEZ 210935Z AUTO 17006KT 10SM SCT014 26/26 A2990 RMK AO2 T02580256
KPEZ 210915Z AUTO 16008KT 10SM BKN012 BKN018 26/26 A2990 RMK AO2 T02600255
KPEZ 210855Z AUTO 16007KT 10SM BKN012 BKN016 26/26 A2990 RMK AO2 T02610255
KPEZ 210835Z AUTO 16006KT 10SM BKN013 BKN019 26/26 A2991 RMK AO2 T02610255
KPEZ 210815Z AUTO 16009KT 10SM BKN013 BKN019 26/26 A2991 RMK AO2 T02610255
KPEZ 210755Z AUTO 16007KT 10SM SCT010 BKN015 26/26 A2991 RMK AO2 T02600256
KPEZ 210735Z AUTO 15006KT 10SM SCT010 OVC014 26/26 A2991 RMK AO2 T02610256
KPEZ 210715Z AUTO 16006KT 10SM BKN013 BKN019 26/26 A2992 RMK AO2 T02600256
KPEZ 210655Z AUTO 15005KT 10SM BKN013 26/26 A2992 RMK AO2 T02600255
KPEZ 210635Z AUTO 15006KT 10SM BKN013 26/26 A2992 RMK AO2 T02610255
KPEZ 210615Z AUTO 15007KT 10SM BKN013 26/25 A2992 RMK AO2 T02620253
KPEZ 210555Z AUTO 15010KT 10SM OVC013 26/25 A2992 RMK AO2 T02620252 10270 20260
KPEZ 210535Z AUTO 15008KT 10SM OVC013 26/25 A2992 RMK AO2 T02630252
KPEZ 210515Z AUTO 15007KT 10SM SCT013 26/25 A2993 RMK AO2 T02610251
KPEZ 210455Z AUTO 14006KT 10SM CLR 26/25 A2993 RMK AO2 T02610251
KPEZ 210435Z AUTO 14006KT 10SM CLR 26/25 A2993 RMK AO2 T02600251
KPEZ 210415Z AUTO 13005KT 10SM SCT048 26/25 A2993 RMK AO2 T02600253
KPEZ 210355Z AUTO 12005KT 10SM SCT048 26/25 A2993 RMK AO2 T02610250
KPEZ 210335Z AUTO 14005KT 10SM CLR 26/25 A2993 RMK AO2 T02620247
KPEZ 210315Z AUTO 15005KT 10SM CLR 26/25 A2992 RMK AO2 T02620245
KPEZ 210255Z AUTO 15006KT 10SM CLR 26/24 A2992 RMK AO2 LTG DSNT N T02630240
KPEZ 210235Z AUTO 16005KT 10SM CLR 27/24 A2991 RMK AO2 T02650236
KPEZ 210215Z AUTO 15005KT 10SM CLR 27/23 A2991 RMK AO2 LTG DSNT N AND S T02650232
KPEZ 210155Z AUTO 14005KT 10SM CLR 27/23 A2990 RMK AO2 LTG DSNT N T02670226
KPEZ 210135Z AUTO 15006KT 10SM CLR 26/24 A2989 RMK AO2 T02620240
KPEZ 210115Z AUTO 13006KT 10SM CLR 26/25 A2989 RMK AO2 T02600250
KPEZ 210055Z AUTO 12006KT 10SM CLR 26/25 A2988 RMK AO2 T02620245
KPEZ 210035Z AUTO 11006KT 10SM SCT042 SCT065 27/24 A2988 RMK AO2 T02650242
KPEZ 210015Z AUTO 11008KT 10SM SCT042 SCT100 27/24 A2988 RMK AO2 T02700240
KPEZ 202355Z AUTO 11006KT 10SM SCT045 SCT060 BKN100 27/24 A2988 RMK AO2 T02700240 10321 20270
KPEZ 202335Z AUTO 11007KT 10SM -RA SCT040 BKN060 OVC070 27/24 A2987 RMK AO2 T02720238
KPEZ 202315Z AUTO 11009G14KT 10SM SCT037 SCT045 BKN060 29/23 A2986 RMK AO2 T02850234
KPEZ 202255Z AUTO 16006KT 10SM SCT045 SCT050 SCT070 30/22 A2986 RMK AO2 T03040219
KPEZ 202235Z AUTO 16008KT 10SM SCT044 SCT085 31/22 A2986 RMK AO2 T03100219
KPEZ 202215Z AUTO 17010KT 10SM SCT070 SCT085 32/21 A2986 RMK AO2 T03160213
KPEZ 202155Z AUTO 15008KT 10SM CLR 31/21 A2986 RMK AO2 LTG DSNT S T03120214
KPEZ 202135Z AUTO 18008KT 10SM SCT044 31/22 A2986 RMK AO2 T03120220
KPEZ 202115Z AUTO 18008KT 10SM SCT032 SCT039 31/22 A2986 RMK AO2 T03060221
KPEZ 202055Z AUTO 21008G14KT 10SM SCT034 SCT043 32/22 A2987 RMK AO2 LTG DSNT NE T03150218
KPEZ 202035Z AUTO 19008KT 10SM SCT036 SCT110 31/22 A2987 RMK AO2 LTG DSNT NE T03130216
KPEZ 202015Z AUTO 17008KT 10SM BKN110 31/22 A2988 RMK AO2 LTG DSNT NE T03100215
KPEZ 201955Z AUTO 19007KT 10SM SCT031 SCT041 BKN110 31/22 A2989 RMK AO2 LTG DSNT N AND E T03110223
KPEZ 201935Z AUTO 18012G15KT 10SM SCT031 SCT041 SCT110 31/22 A2990 RMK AO2 T03140221
KPEZ 201915Z AUTO 20013G18KT 10SM SCT031 SCT120 32/22 A2991 RMK AO2 T03170221
KPEZ 201855Z AUTO 21011KT 10SM SCT028 SCT033 SCT060 31/23 A2992 RMK AO2 T03070230
KPEZ 201835Z AUTO 19007KT 10SM SCT027 SCT032 BKN042 30/24 A2993 RMK AO2 T03000236
KPEZ 201815Z AUTO 18008KT 10SM BKN028 BKN043 BKN060 30/23 A2993 RMK AO2 LTG DSNT NE T03000229
KPEZ 201755Z AUTO 20006KT 10SM SCT026 SCT030 BKN043 30/23 A2994 RMK AO2 T03000229
KPEZ 201735Z AUTO 17005KT 10SM SCT019 SCT026 BKN033 29/23 A2996 RMK AO2 T02930233
KPEZ 201715Z AUTO 17007KT 10SM SCT019 BKN026 OVC120 29/24 A2997 RMK AO2 T02880237
KPEZ 201655Z AUTO 17006KT 10SM SCT015 SCT024 BKN120 29/24 A2997 RMK AO2 T02850243
KPEZ 201635Z AUTO 15007KT 10SM SCT013 SCT021 BKN120 28/24 A2997 RMK AO2 T02780243
KPEZ 201615Z AUTO 17007KT 10SM SCT013 SCT021 BKN120 28/25 A2997 RMK AO2 T02750245
KPEZ 201555Z AUTO 17008KT 10SM SCT013 SCT120 28/25 A2997 RMK AO2 T02760245
KPEZ 201535Z AUTO 16008KT 10SM SCT009 28/25 A2996 RMK AO2 LTG DSNT NE T02750249
KPEZ 201515Z AUTO 16005KT 10SM SCT007 SCT013 27/26 A2996 RMK AO2 LTG DSNT SW T02670256
KPEZ 201455Z AUTO 14003KT 10SM SCT005 SCT013 26/26 A2996 RMK AO2 LTG DSNT N T02610260
KPEZ 201435Z AUTO 13003KT 10SM SCT005 26/26 A2995 RMK AO2 T02580258
KPEZ 201415Z AUTO 13003KT 10SM SCT005 26/26 A2995 RMK AO2 T02560256
KPEZ 201355Z AUTO 14003KT 10SM SCT007 BKN013 A2995 RMK AO2
KPEZ 201335Z AUTO 13003KT 10SM SCT009 SCT013 BKN019 A2994 RMK AO2 LTG DSNT N
KPEZ 201315Z AUTO 00000KT 10SM SCT012 BKN017 BKN023 A2994 RMK AO2 LTG DSNT N
KPEZ 201255Z AUTO 00000KT 10SM VCTS SCT012 BKN019 BKN120 A2993 RMK AO2 LTG DSNT N
KPEZ 201235Z AUTO 00000KT 10SM SCT005 SCT015 BKN110 A2993 RMK AO2 LTG DSNT N AND NE
KPEZ 201215Z AUTO 14003KT 10SM -VCTSDZ BKN005 BKN019 OVC110 A2993 RMK AO2 LTG DSNT N AND NE
KPEZ 201155Z AUTO 15003KT 10SM TS SCT005 SCT010 BKN110 A2993 RMK AO2 LTG DSNT N 7////
KPEZ 201135Z AUTO 00000KT 10SM CLR A2992 RMK AO2
KPEZ 201115Z AUTO 13004KT 10SM TS CLR A2992 RMK AO2
KPEZ 201055Z AUTO 16004KT 10SM SCT008 SCT032 SCT039 A2992 RMK AO2
KPEZ 201035Z AUTO 16004KT 10SM SCT008 BKN012 BKN037 A2992 RMK AO2
KPEZ 201015Z AUTO 13003KT 10SM SCT008 SCT012 A2992 RMK AO2 LTG DSNT S AND SW
KPEZ 200955Z AUTO 14003KT 10SM CLR A2992 RMK AO2 LTG DSNT SE THRU NW
KPEZ 200935Z AUTO 17005KT 10SM CLR A2992 RMK AO2
KPEZ 200915Z AUTO 15004KT 10SM SCT095 A2993 RMK AO2
KPEZ 200855Z AUTO 00000KT 10SM SCT095 25/25 A2993 RMK AO2 T02520252
KPEZ 200835Z AUTO 15003KT 10SM CLR 25/25 A2993 RMK AO2 T02520252
KPEZ 200815Z AUTO 00000KT 10SM CLR 25/25 A2993 RMK AO2 T02520252
KPEZ 200755Z AUTO 14003KT 10SM CLR 25/25 A2993 RMK AO2 T02530253
KPEZ 200735Z AUTO 16003KT 10SM CLR 26/25 A2994 RMK AO2 T02550253
KPEZ 200715Z AUTO 15003KT 10SM CLR 26/25 A2994 RMK AO2 T02550251
KPEZ 200655Z AUTO 15004KT 10SM CLR 26/25 A2994 RMK AO2 T02550250
KPEZ 200635Z AUTO 13004KT 10SM CLR 26/25 A2994 RMK AO2 T02550247
KPEZ 200615Z AUTO 13004KT 10SM CLR 26/25 A2994 RMK AO2 T02560245
KPEZ 200555Z AUTO 14003KT 10SM CLR 26/24 A2995 RMK AO2 6//// T02570243